sensor_id;sensor_type;location;lat;lon;timestamp;P1;durP1;ratioP1;P2;durP2;ratioP2
4650;SDS011;2338;49.602;8.722;2023-03-01T00:00:39;17.00;;;12.85;;
4650;SDS011;2338;49.602;8.722;2023-03-01T00:03:26;17.48;;;11.73;;
4650;SDS011;2338;49.602;8.722;2023-03-01T00:06:12;19.17;;;12.75;;
4650;SDS011;2338;49.602;8.722;2023-03-01T00:08:58;16.17;;;12.40;;
4650;SDS011;2338;49.602;8.722;2023-03-01T00:11:44;19.95;;;12.13;;
4650;SDS011;2338;49.602;8.722;2023-03-01T00:14:30;16.15;;;12.32;;
4650;SDS011;2338;49.602;8.722;2023-03-01T00:17:15;16.85;;;13.48;;
4650;SDS011;2338;49.602;8.722;2023-03-01T00:20:03;17.77;;;13.48;;
4650;SDS011;2338;49.602;8.722;2023-03-01T00:22:51;18.15;;;12.52;;
4650;SDS011;2338;49.602;8.722;2023-03-01T00:25:40;20.00;;;12.90;;
4650;SDS011;2338;49.602;8.722;2023-03-01T00:28:26;18.83;;;12.65;;
4650;SDS011;2338;49.602;8.722;2023-03-01T00:31:13;19.30;;;13.63;;
4650;SDS011;2338;49.602;8.722;2023-03-01T00:34:01;18.88;;;12.50;;
4650;SDS011;2338;49.602;8.722;2023-03-01T00:36:49;19.65;;;13.25;;
4650;SDS011;2338;49.602;8.722;2023-03-01T00:39:35;19.30;;;14.57;;
4650;SDS011;2338;49.602;8.722;2023-03-01T00:42:20;21.67;;;14.52;;
4650;SDS011;2338;49.602;8.722;2023-03-01T00:45:06;20.70;;;13.27;;
4650;SDS011;2338;49.602;8.722;2023-03-01T00:47:53;17.80;;;14.70;;
4650;SDS011;2338;49.602;8.722;2023-03-01T00:50:39;19.70;;;15.10;;
4650;SDS011;2338;49.602;8.722;2023-03-01T00:53:25;17.77;;;12.48;;
4650;SDS011;2338;49.602;8.722;2023-03-01T00:56:11;23.67;;;14.20;;
4650;SDS011;2338;49.602;8.722;2023-03-01T00:58:59;22.42;;;13.95;;
4650;SDS011;2338;49.602;8.722;2023-03-01T01:01:44;21.27;;;14.63;;
4650;SDS011;2338;49.602;8.722;2023-03-01T01:04:30;21.50;;;13.85;;
4650;SDS011;2338;49.602;8.722;2023-03-01T01:07:15;19.90;;;13.65;;
4650;SDS011;2338;49.602;8.722;2023-03-01T01:10:03;20.27;;;15.00;;
4650;SDS011;2338;49.602;8.722;2023-03-01T01:12:49;17.90;;;13.90;;
4650;SDS011;2338;49.602;8.722;2023-03-01T01:15:35;20.15;;;14.00;;
4650;SDS011;2338;49.602;8.722;2023-03-01T01:18:21;20.77;;;14.40;;
4650;SDS011;2338;49.602;8.722;2023-03-01T01:21:07;19.95;;;13.23;;
4650;SDS011;2338;49.602;8.722;2023-03-01T01:23:54;16.90;;;14.05;;
4650;SDS011;2338;49.602;8.722;2023-03-01T01:26:42;18.98;;;14.48;;
4650;SDS011;2338;49.602;8.722;2023-03-01T01:29:28;17.98;;;13.68;;
4650;SDS011;2338;49.602;8.722;2023-03-01T01:32:13;18.58;;;14.95;;
4650;SDS011;2338;49.602;8.722;2023-03-01T01:34:59;21.52;;;15.82;;
4650;SDS011;2338;49.602;8.722;2023-03-01T01:37:45;19.67;;;14.52;;
4650;SDS011;2338;49.602;8.722;2023-03-01T01:40:30;24.42;;;16.73;;
4650;SDS011;2338;49.602;8.722;2023-03-01T01:43:20;19.27;;;15.65;;
4650;SDS011;2338;49.602;8.722;2023-03-01T01:46:10;19.10;;;14.65;;
4650;SDS011;2338;49.602;8.722;2023-03-01T01:49:06;20.80;;;15.40;;
4650;SDS011;2338;49.602;8.722;2023-03-01T01:52:04;23.92;;;16.67;;
4650;SDS011;2338;49.602;8.722;2023-03-01T01:54:56;24.40;;;15.77;;
4650;SDS011;2338;49.602;8.722;2023-03-01T01:57:45;20.13;;;15.25;;
4650;SDS011;2338;49.602;8.722;2023-03-01T02:00:35;20.65;;;14.80;;
4650;SDS011;2338;49.602;8.722;2023-03-01T02:03:23;22.90;;;15.48;;
4650;SDS011;2338;49.602;8.722;2023-03-01T02:06:13;18.73;;;15.05;;
4650;SDS011;2338;49.602;8.722;2023-03-01T02:09:06;21.35;;;15.27;;
4650;SDS011;2338;49.602;8.722;2023-03-01T02:11:56;22.33;;;15.82;;
4650;SDS011;2338;49.602;8.722;2023-03-01T02:14:43;21.60;;;15.38;;
4650;SDS011;2338;49.602;8.722;2023-03-01T02:17:30;19.90;;;15.32;;
4650;SDS011;2338;49.602;8.722;2023-03-01T02:20:16;22.65;;;14.80;;
4650;SDS011;2338;49.602;8.722;2023-03-01T02:23:08;19.95;;;15.20;;
4650;SDS011;2338;49.602;8.722;2023-03-01T02:25:55;18.75;;;15.38;;
4650;SDS011;2338;49.602;8.722;2023-03-01T02:28:46;19.45;;;15.60;;
4650;SDS011;2338;49.602;8.722;2023-03-01T02:31:32;22.50;;;16.30;;
4650;SDS011;2338;49.602;8.722;2023-03-01T02:34:28;23.48;;;17.90;;
4650;SDS011;2338;49.602;8.722;2023-03-01T02:37:16;24.42;;;17.38;;
4650;SDS011;2338;49.602;8.722;2023-03-01T02:40:06;23.98;;;16.90;;
4650;SDS011;2338;49.602;8.722;2023-03-01T02:42:57;21.92;;;16.10;;
4650;SDS011;2338;49.602;8.722;2023-03-01T02:45:48;23.20;;;16.10;;
4650;SDS011;2338;49.602;8.722;2023-03-01T02:48:41;22.85;;;16.77;;
4650;SDS011;2338;49.602;8.722;2023-03-01T02:51:41;22.17;;;15.95;;
4650;SDS011;2338;49.602;8.722;2023-03-01T02:54:32;22.88;;;16.55;;
4650;SDS011;2338;49.602;8.722;2023-03-01T02:57:21;22.83;;;17.40;;
4650;SDS011;2338;49.602;8.722;2023-03-01T03:00:08;24.45;;;17.23;;
4650;SDS011;2338;49.602;8.722;2023-03-01T03:03:04;23.17;;;17.05;;
4650;SDS011;2338;49.602;8.722;2023-03-01T03:05:49;24.50;;;17.70;;
4650;SDS011;2338;49.602;8.722;2023-03-01T03:08:35;25.13;;;18.30;;
4650;SDS011;2338;49.602;8.722;2023-03-01T03:11:21;23.50;;;17.23;;
4650;SDS011;2338;49.602;8.722;2023-03-01T03:14:07;25.08;;;18.08;;
4650;SDS011;2338;49.602;8.722;2023-03-01T03:16:56;29.13;;;18.67;;
4650;SDS011;2338;49.602;8.722;2023-03-01T03:19:43;25.42;;;17.75;;
4650;SDS011;2338;49.602;8.722;2023-03-01T03:22:29;24.15;;;17.42;;
4650;SDS011;2338;49.602;8.722;2023-03-01T03:25:15;22.10;;;16.88;;
4650;SDS011;2338;49.602;8.722;2023-03-01T03:28:01;21.92;;;16.50;;
4650;SDS011;2338;49.602;8.722;2023-03-01T03:30:53;24.75;;;17.52;;
4650;SDS011;2338;49.602;8.722;2023-03-01T03:33:38;24.02;;;16.33;;
4650;SDS011;2338;49.602;8.722;2023-03-01T03:36:25;22.02;;;16.73;;
4650;SDS011;2338;49.602;8.722;2023-03-01T03:39:11;21.17;;;16.08;;
4650;SDS011;2338;49.602;8.722;2023-03-01T03:41:57;23.92;;;16.45;;
4650;SDS011;2338;49.602;8.722;2023-03-01T03:44:42;26.08;;;17.85;;
4650;SDS011;2338;49.602;8.722;2023-03-01T03:47:28;23.48;;;15.82;;
4650;SDS011;2338;49.602;8.722;2023-03-01T03:50:15;25.63;;;17.00;;
4650;SDS011;2338;49.602;8.722;2023-03-01T03:53:03;23.63;;;17.42;;
4650;SDS011;2338;49.602;8.722;2023-03-01T03:55:51;21.27;;;15.25;;
4650;SDS011;2338;49.602;8.722;2023-03-01T03:58:36;24.33;;;18.08;;
4650;SDS011;2338;49.602;8.722;2023-03-01T04:01:22;23.35;;;16.30;;
4650;SDS011;2338;49.602;8.722;2023-03-01T04:04:08;24.58;;;17.35;;
4650;SDS011;2338;49.602;8.722;2023-03-01T04:06:54;25.83;;;17.50;;
4650;SDS011;2338;49.602;8.722;2023-03-01T04:09:41;27.60;;;17.20;;
4650;SDS011;2338;49.602;8.722;2023-03-01T04:12:27;27.92;;;17.50;;
4650;SDS011;2338;49.602;8.722;2023-03-01T04:15:13;21.33;;;15.50;;
4650;SDS011;2338;49.602;8.722;2023-03-01T04:17:59;25.98;;;17.73;;
4650;SDS011;2338;49.602;8.722;2023-03-01T04:20:45;22.48;;;16.52;;
4650;SDS011;2338;49.602;8.722;2023-03-01T04:23:31;24.88;;;18.27;;
4650;SDS011;2338;49.602;8.722;2023-03-01T04:26:18;23.80;;;17.13;;
4650;SDS011;2338;49.602;8.722;2023-03-01T04:29:04;25.27;;;17.95;;
4650;SDS011;2338;49.602;8.722;2023-03-01T04:31:50;22.60;;;16.75;;
4650;SDS011;2338;49.602;8.722;2023-03-01T04:34:36;24.67;;;18.20;;
4650;SDS011;2338;49.602;8.722;2023-03-01T04:37:21;23.92;;;16.50;;
4650;SDS011;2338;49.602;8.722;2023-03-01T04:40:07;30.00;;;17.80;;
4650;SDS011;2338;49.602;8.722;2023-03-01T04:43:01;27.40;;;18.80;;
4650;SDS011;2338;49.602;8.722;2023-03-01T04:45:47;31.77;;;16.90;;
4650;SDS011;2338;49.602;8.722;2023-03-01T04:48:33;25.88;;;17.65;;
4650;SDS011;2338;49.602;8.722;2023-03-01T04:51:19;25.55;;;17.65;;
4650;SDS011;2338;49.602;8.722;2023-03-01T04:54:04;31.73;;;18.75;;
4650;SDS011;2338;49.602;8.722;2023-03-01T04:56:53;23.25;;;17.05;;
4650;SDS011;2338;49.602;8.722;2023-03-01T04:59:40;25.52;;;17.60;;
4650;SDS011;2338;49.602;8.722;2023-03-01T05:02:26;22.63;;;17.70;;
4650;SDS011;2338;49.602;8.722;2023-03-01T05:05:11;25.90;;;18.13;;
4650;SDS011;2338;49.602;8.722;2023-03-01T05:07:57;28.55;;;19.27;;
4650;SDS011;2338;49.602;8.722;2023-03-01T05:10:45;27.95;;;18.20;;
4650;SDS011;2338;49.602;8.722;2023-03-01T05:13:32;27.35;;;18.30;;
4650;SDS011;2338;49.602;8.722;2023-03-01T05:16:19;28.75;;;18.85;;
4650;SDS011;2338;49.602;8.722;2023-03-01T05:19:04;26.95;;;19.33;;
4650;SDS011;2338;49.602;8.722;2023-03-01T05:21:55;27.40;;;17.70;;
4650;SDS011;2338;49.602;8.722;2023-03-01T05:24:47;26.73;;;17.35;;
4650;SDS011;2338;49.602;8.722;2023-03-01T05:27:33;27.27;;;18.65;;
4650;SDS011;2338;49.602;8.722;2023-03-01T05:30:19;24.38;;;17.67;;
4650;SDS011;2338;49.602;8.722;2023-03-01T05:33:07;25.90;;;19.02;;
4650;SDS011;2338;49.602;8.722;2023-03-01T05:35:59;30.23;;;19.90;;
4650;SDS011;2338;49.602;8.722;2023-03-01T05:38:45;23.50;;;18.00;;
4650;SDS011;2338;49.602;8.722;2023-03-01T05:41:30;26.13;;;17.95;;
4650;SDS011;2338;49.602;8.722;2023-03-01T05:44:16;27.58;;;18.05;;
4650;SDS011;2338;49.602;8.722;2023-03-01T05:47:02;30.15;;;18.40;;
4650;SDS011;2338;49.602;8.722;2023-03-01T05:49:49;24.52;;;17.17;;
4650;SDS011;2338;49.602;8.722;2023-03-01T05:52:34;25.85;;;18.23;;
4650;SDS011;2338;49.602;8.722;2023-03-01T05:55:20;29.42;;;19.23;;
4650;SDS011;2338;49.602;8.722;2023-03-01T05:58:07;30.40;;;17.70;;
4650;SDS011;2338;49.602;8.722;2023-03-01T06:00:55;27.83;;;18.20;;
4650;SDS011;2338;49.602;8.722;2023-03-01T06:03:41;26.45;;;18.27;;
4650;SDS011;2338;49.602;8.722;2023-03-01T06:06:28;27.40;;;18.67;;
4650;SDS011;2338;49.602;8.722;2023-03-01T06:09:14;23.35;;;17.45;;
4650;SDS011;2338;49.602;8.722;2023-03-01T06:11:59;29.85;;;19.10;;
4650;SDS011;2338;49.602;8.722;2023-03-01T06:14:45;25.13;;;18.45;;
4650;SDS011;2338;49.602;8.722;2023-03-01T06:17:32;29.17;;;18.83;;
4650;SDS011;2338;49.602;8.722;2023-03-01T06:20:21;27.35;;;17.27;;
4650;SDS011;2338;49.602;8.722;2023-03-01T06:23:10;27.70;;;19.83;;
4650;SDS011;2338;49.602;8.722;2023-03-01T06:25:55;28.92;;;18.98;;
4650;SDS011;2338;49.602;8.722;2023-03-01T06:28:41;27.23;;;18.63;;
4650;SDS011;2338;49.602;8.722;2023-03-01T06:31:29;33.28;;;19.08;;
4650;SDS011;2338;49.602;8.722;2023-03-01T06:34:15;29.33;;;20.35;;
4650;SDS011;2338;49.602;8.722;2023-03-01T06:37:00;24.42;;;17.75;;
4650;SDS011;2338;49.602;8.722;2023-03-01T06:39:50;26.27;;;18.50;;
4650;SDS011;2338;49.602;8.722;2023-03-01T06:42:35;31.38;;;19.30;;
4650;SDS011;2338;49.602;8.722;2023-03-01T06:45:21;29.95;;;20.25;;
4650;SDS011;2338;49.602;8.722;2023-03-01T06:48:07;29.38;;;18.73;;
4650;SDS011;2338;49.602;8.722;2023-03-01T06:50:53;29.40;;;19.13;;
4650;SDS011;2338;49.602;8.722;2023-03-01T06:53:42;25.60;;;17.95;;
4650;SDS011;2338;49.602;8.722;2023-03-01T06:56:29;32.50;;;18.45;;
4650;SDS011;2338;49.602;8.722;2023-03-01T06:59:15;27.88;;;18.67;;
4650;SDS011;2338;49.602;8.722;2023-03-01T07:02:01;29.65;;;19.40;;
4650;SDS011;2338;49.602;8.722;2023-03-01T07:04:48;27.77;;;17.90;;
4650;SDS011;2338;49.602;8.722;2023-03-01T07:07:34;25.17;;;17.35;;
4650;SDS011;2338;49.602;8.722;2023-03-01T07:10:20;27.27;;;18.95;;
4650;SDS011;2338;49.602;8.722;2023-03-01T07:13:07;23.25;;;18.35;;
4650;SDS011;2338;49.602;8.722;2023-03-01T07:15:53;26.23;;;19.35;;
4650;SDS011;2338;49.602;8.722;2023-03-01T07:18:39;28.25;;;18.40;;
4650;SDS011;2338;49.602;8.722;2023-03-01T07:21:25;29.02;;;18.85;;
4650;SDS011;2338;49.602;8.722;2023-03-01T07:24:10;25.40;;;17.80;;
4650;SDS011;2338;49.602;8.722;2023-03-01T07:26:56;29.70;;;19.77;;
4650;SDS011;2338;49.602;8.722;2023-03-01T07:29:44;32.58;;;18.40;;
4650;SDS011;2338;49.602;8.722;2023-03-01T07:32:29;27.50;;;18.45;;
4650;SDS011;2338;49.602;8.722;2023-03-01T07:35:15;32.35;;;20.25;;
4650;SDS011;2338;49.602;8.722;2023-03-01T07:38:00;31.67;;;21.35;;
4650;SDS011;2338;49.602;8.722;2023-03-01T07:40:46;29.77;;;18.45;;
4650;SDS011;2338;49.602;8.722;2023-03-01T07:43:31;28.17;;;18.90;;
4650;SDS011;2338;49.602;8.722;2023-03-01T07:46:18;26.35;;;17.95;;
4650;SDS011;2338;49.602;8.722;2023-03-01T07:49:04;25.80;;;18.73;;
4650;SDS011;2338;49.602;8.722;2023-03-01T07:51:50;30.45;;;20.17;;
4650;SDS011;2338;49.602;8.722;2023-03-01T07:54:36;31.17;;;18.77;;
4650;SDS011;2338;49.602;8.722;2023-03-01T07:57:21;31.73;;;18.55;;
4650;SDS011;2338;49.602;8.722;2023-03-01T08:00:08;26.73;;;18.35;;
4650;SDS011;2338;49.602;8.722;2023-03-01T08:02:59;28.25;;;19.13;;
4650;SDS011;2338;49.602;8.722;2023-03-01T08:05:45;28.63;;;19.83;;
4650;SDS011;2338;49.602;8.722;2023-03-01T08:08:31;29.83;;;18.33;;
4650;SDS011;2338;49.602;8.722;2023-03-01T08:11:16;29.38;;;18.25;;
4650;SDS011;2338;49.602;8.722;2023-03-01T08:14:02;30.48;;;18.50;;
4650;SDS011;2338;49.602;8.722;2023-03-01T08:16:48;32.75;;;18.33;;
4650;SDS011;2338;49.602;8.722;2023-03-01T08:19:36;25.05;;;18.45;;
4650;SDS011;2338;49.602;8.722;2023-03-01T08:22:21;28.67;;;18.83;;
4650;SDS011;2338;49.602;8.722;2023-03-01T08:25:08;24.08;;;17.65;;
4650;SDS011;2338;49.602;8.722;2023-03-01T08:27:54;25.02;;;16.52;;
4650;SDS011;2338;49.602;8.722;2023-03-01T08:30:39;25.73;;;17.48;;
4650;SDS011;2338;49.602;8.722;2023-03-01T08:33:25;27.15;;;17.88;;
4650;SDS011;2338;49.602;8.722;2023-03-01T08:36:12;28.40;;;19.00;;
4650;SDS011;2338;49.602;8.722;2023-03-01T08:38:59;26.75;;;17.73;;
4650;SDS011;2338;49.602;8.722;2023-03-01T08:41:45;25.85;;;17.80;;
4650;SDS011;2338;49.602;8.722;2023-03-01T08:44:31;28.30;;;18.20;;
4650;SDS011;2338;49.602;8.722;2023-03-01T08:47:17;26.10;;;17.60;;
4650;SDS011;2338;49.602;8.722;2023-03-01T08:50:03;27.20;;;18.30;;
4650;SDS011;2338;49.602;8.722;2023-03-01T08:52:51;27.48;;;17.90;;
4650;SDS011;2338;49.602;8.722;2023-03-01T08:55:37;24.42;;;17.30;;
4650;SDS011;2338;49.602;8.722;2023-03-01T08:58:22;29.55;;;18.30;;
4650;SDS011;2338;49.602;8.722;2023-03-01T09:01:08;24.40;;;17.70;;
4650;SDS011;2338;49.602;8.722;2023-03-01T09:03:55;24.20;;;17.10;;
4650;SDS011;2338;49.602;8.722;2023-03-01T09:06:40;28.13;;;19.25;;
4650;SDS011;2338;49.602;8.722;2023-03-01T09:09:28;31.65;;;19.92;;
4650;SDS011;2338;49.602;8.722;2023-03-01T09:12:15;26.48;;;18.73;;
4650;SDS011;2338;49.602;8.722;2023-03-01T09:15:00;27.55;;;18.80;;
4650;SDS011;2338;49.602;8.722;2023-03-01T09:17:46;28.95;;;19.13;;
4650;SDS011;2338;49.602;8.722;2023-03-01T09:20:32;31.35;;;20.27;;
4650;SDS011;2338;49.602;8.722;2023-03-01T09:23:17;31.38;;;19.65;;
4650;SDS011;2338;49.602;8.722;2023-03-01T09:26:05;30.10;;;20.73;;
4650;SDS011;2338;49.602;8.722;2023-03-01T09:28:53;31.00;;;20.25;;
4650;SDS011;2338;49.602;8.722;2023-03-01T09:31:40;30.63;;;20.10;;
4650;SDS011;2338;49.602;8.722;2023-03-01T09:34:26;27.70;;;17.00;;
4650;SDS011;2338;49.602;8.722;2023-03-01T09:37:11;25.10;;;18.35;;
4650;SDS011;2338;49.602;8.722;2023-03-01T09:39:58;22.33;;;17.48;;
4650;SDS011;2338;49.602;8.722;2023-03-01T09:42:51;28.25;;;18.02;;
4650;SDS011;2338;49.602;8.722;2023-03-01T09:45:41;27.03;;;17.87;;
4650;SDS011;2338;49.602;8.722;2023-03-01T09:48:33;25.55;;;18.05;;
4650;SDS011;2338;49.602;8.722;2023-03-01T09:51:27;24.63;;;18.00;;
4650;SDS011;2338;49.602;8.722;2023-03-01T09:54:16;22.83;;;15.93;;
4650;SDS011;2338;49.602;8.722;2023-03-01T10:00:11;28.03;;;18.63;;
4650;SDS011;2338;49.602;8.722;2023-03-01T10:03:08;28.85;;;18.13;;
4650;SDS011;2338;49.602;8.722;2023-03-01T10:06:01;24.33;;;16.67;;
4650;SDS011;2338;49.602;8.722;2023-03-01T10:08:52;28.53;;;17.27;;
4650;SDS011;2338;49.602;8.722;2023-03-01T10:11:41;27.13;;;17.70;;
4650;SDS011;2338;49.602;8.722;2023-03-01T10:14:30;27.90;;;18.27;;
4650;SDS011;2338;49.602;8.722;2023-03-01T10:17:26;23.20;;;16.23;;
4650;SDS011;2338;49.602;8.722;2023-03-01T10:20:19;30.10;;;18.83;;
4650;SDS011;2338;49.602;8.722;2023-03-01T10:23:07;26.03;;;17.10;;
4650;SDS011;2338;49.602;8.722;2023-03-01T10:26:01;26.47;;;18.20;;
4650;SDS011;2338;49.602;8.722;2023-03-01T10:28:58;27.50;;;18.73;;
4650;SDS011;2338;49.602;8.722;2023-03-01T10:31:49;25.10;;;16.97;;
4650;SDS011;2338;49.602;8.722;2023-03-01T10:34:37;26.07;;;17.50;;
4650;SDS011;2338;49.602;8.722;2023-03-01T10:37:22;24.90;;;16.40;;
4650;SDS011;2338;49.602;8.722;2023-03-01T10:40:10;23.60;;;16.57;;
4650;SDS011;2338;49.602;8.722;2023-03-01T10:42:57;30.07;;;17.50;;
4650;SDS011;2338;49.602;8.722;2023-03-01T10:45:45;26.03;;;18.23;;
4650;SDS011;2338;49.602;8.722;2023-03-01T10:48:31;24.73;;;18.43;;
4650;SDS011;2338;49.602;8.722;2023-03-01T10:51:18;25.73;;;17.30;;
4650;SDS011;2338;49.602;8.722;2023-03-01T10:54:04;26.63;;;18.70;;
4650;SDS011;2338;49.602;8.722;2023-03-01T10:57:01;26.10;;;17.33;;
4650;SDS011;2338;49.602;8.722;2023-03-01T10:59:47;26.77;;;17.47;;
4650;SDS011;2338;49.602;8.722;2023-03-01T11:03:03;25.23;;;17.23;;
4650;SDS011;2338;49.602;8.722;2023-03-01T11:05:57;26.70;;;16.63;;
4650;SDS011;2338;49.602;8.722;2023-03-01T11:08:46;28.43;;;16.70;;
4650;SDS011;2338;49.602;8.722;2023-03-01T11:11:34;28.17;;;17.77;;
4650;SDS011;2338;49.602;8.722;2023-03-01T11:14:20;29.93;;;17.67;;
4650;SDS011;2338;49.602;8.722;2023-03-01T11:17:12;29.43;;;16.60;;
4650;SDS011;2338;49.602;8.722;2023-03-01T11:20:03;25.07;;;17.70;;
4650;SDS011;2338;49.602;8.722;2023-03-01T11:22:59;23.50;;;17.10;;
4650;SDS011;2338;49.602;8.722;2023-03-01T11:25:49;26.90;;;18.00;;
4650;SDS011;2338;49.602;8.722;2023-03-01T11:28:40;25.00;;;17.00;;
4650;SDS011;2338;49.602;8.722;2023-03-01T11:31:27;22.53;;;16.50;;
4650;SDS011;2338;49.602;8.722;2023-03-01T11:34:16;24.10;;;17.67;;
4650;SDS011;2338;49.602;8.722;2023-03-01T11:37:11;27.50;;;17.80;;
4650;SDS011;2338;49.602;8.722;2023-03-01T11:40:04;24.70;;;17.07;;
4650;SDS011;2338;49.602;8.722;2023-03-01T11:43:02;24.90;;;16.57;;
4650;SDS011;2338;49.602;8.722;2023-03-01T11:49:24;25.50;;;16.90;;
4650;SDS011;2338;49.602;8.722;2023-03-01T11:52:22;29.27;;;17.73;;
4650;SDS011;2338;49.602;8.722;2023-03-01T11:55:23;21.27;;;14.77;;
4650;SDS011;2338;49.602;8.722;2023-03-01T11:58:21;22.43;;;15.90;;
4650;SDS011;2338;49.602;8.722;2023-03-01T12:01:18;22.90;;;16.80;;
4650;SDS011;2338;49.602;8.722;2023-03-01T12:04:36;26.67;;;17.97;;
4650;SDS011;2338;49.602;8.722;2023-03-01T12:07:46;23.30;;;16.40;;
4650;SDS011;2338;49.602;8.722;2023-03-01T12:10:38;22.60;;;15.80;;
4650;SDS011;2338;49.602;8.722;2023-03-01T12:17:07;30.00;;;16.77;;
4650;SDS011;2338;49.602;8.722;2023-03-01T12:20:12;25.50;;;14.93;;
4650;SDS011;2338;49.602;8.722;2023-03-01T12:23:16;22.80;;;17.07;;
4650;SDS011;2338;49.602;8.722;2023-03-01T12:26:16;23.00;;;16.47;;
4650;SDS011;2338;49.602;8.722;2023-03-01T12:29:09;25.17;;;16.57;;
4650;SDS011;2338;49.602;8.722;2023-03-01T12:32:15;22.97;;;16.50;;
4650;SDS011;2338;49.602;8.722;2023-03-01T12:35:14;26.43;;;16.50;;
4650;SDS011;2338;49.602;8.722;2023-03-01T12:38:21;20.57;;;15.10;;
4650;SDS011;2338;49.602;8.722;2023-03-01T12:41:31;22.43;;;16.53;;
4650;SDS011;2338;49.602;8.722;2023-03-01T12:44:31;22.60;;;16.17;;
4650;SDS011;2338;49.602;8.722;2023-03-01T12:47:31;20.80;;;15.27;;
4650;SDS011;2338;49.602;8.722;2023-03-01T12:50:32;24.40;;;18.03;;
4650;SDS011;2338;49.602;8.722;2023-03-01T12:53:24;26.10;;;17.03;;
4650;SDS011;2338;49.602;8.722;2023-03-01T12:56:13;23.30;;;16.90;;
4650;SDS011;2338;49.602;8.722;2023-03-01T12:59:03;23.87;;;15.93;;
4650;SDS011;2338;49.602;8.722;2023-03-01T13:01:56;21.83;;;15.17;;
4650;SDS011;2338;49.602;8.722;2023-03-01T13:04:53;24.10;;;16.33;;
4650;SDS011;2338;49.602;8.722;2023-03-01T13:07:53;23.80;;;14.60;;
4650;SDS011;2338;49.602;8.722;2023-03-01T13:10:43;27.67;;;16.13;;
4650;SDS011;2338;49.602;8.722;2023-03-01T13:13:33;19.30;;;14.80;;
4650;SDS011;2338;49.602;8.722;2023-03-01T13:19:29;20.83;;;13.33;;
4650;SDS011;2338;49.602;8.722;2023-03-01T13:22:26;18.57;;;15.00;;
4650;SDS011;2338;49.602;8.722;2023-03-01T13:25:15;20.40;;;14.53;;
4650;SDS011;2338;49.602;8.722;2023-03-01T13:34:50;26.53;;;13.73;;
4650;SDS011;2338;49.602;8.722;2023-03-01T13:37:40;21.40;;;12.97;;
4650;SDS011;2338;49.602;8.722;2023-03-01T13:43:44;18.57;;;12.50;;
4650;SDS011;2338;49.602;8.722;2023-03-01T13:46:31;17.00;;;12.43;;
4650;SDS011;2338;49.602;8.722;2023-03-01T13:49:20;19.30;;;13.40;;
4650;SDS011;2338;49.602;8.722;2023-03-01T13:52:16;19.27;;;13.00;;
4650;SDS011;2338;49.602;8.722;2023-03-01T13:55:18;18.60;;;13.53;;
4650;SDS011;2338;49.602;8.722;2023-03-01T13:58:14;19.47;;;12.87;;
4650;SDS011;2338;49.602;8.722;2023-03-01T14:01:05;16.70;;;12.03;;
4650;SDS011;2338;49.602;8.722;2023-03-01T14:03:52;16.10;;;12.30;;
4650;SDS011;2338;49.602;8.722;2023-03-01T14:06:40;17.13;;;13.30;;
4650;SDS011;2338;49.602;8.722;2023-03-01T14:09:27;18.10;;;13.53;;
4650;SDS011;2338;49.602;8.722;2023-03-01T14:12:32;17.90;;;13.47;;
4650;SDS011;2338;49.602;8.722;2023-03-01T14:15:27;16.77;;;11.67;;
4650;SDS011;2338;49.602;8.722;2023-03-01T14:18:18;17.83;;;12.33;;
4650;SDS011;2338;49.602;8.722;2023-03-01T14:21:08;16.57;;;12.30;;
4650;SDS011;2338;49.602;8.722;2023-03-01T14:23:54;19.30;;;12.17;;
4650;SDS011;2338;49.602;8.722;2023-03-01T14:26:41;16.97;;;12.10;;
4650;SDS011;2338;49.602;8.722;2023-03-01T14:29:32;17.53;;;11.87;;
4650;SDS011;2338;49.602;8.722;2023-03-01T14:32:20;15.90;;;11.13;;
4650;SDS011;2338;49.602;8.722;2023-03-01T14:35:18;14.07;;;11.60;;
4650;SDS011;2338;49.602;8.722;2023-03-01T14:38:05;15.20;;;10.90;;
4650;SDS011;2338;49.602;8.722;2023-03-01T14:40:51;16.13;;;11.07;;
4650;SDS011;2338;49.602;8.722;2023-03-01T14:43:43;15.80;;;11.33;;
4650;SDS011;2338;49.602;8.722;2023-03-01T14:46:32;15.43;;;11.30;;
4650;SDS011;2338;49.602;8.722;2023-03-01T14:49:22;16.90;;;11.83;;
4650;SDS011;2338;49.602;8.722;2023-03-01T14:52:17;14.30;;;11.10;;
4650;SDS011;2338;49.602;8.722;2023-03-01T14:55:05;15.40;;;11.43;;
4650;SDS011;2338;49.602;8.722;2023-03-01T14:58:02;22.87;;;11.00;;
4650;SDS011;2338;49.602;8.722;2023-03-01T15:00:51;16.97;;;10.60;;
4650;SDS011;2338;49.602;8.722;2023-03-01T15:03:39;19.40;;;10.20;;
4650;SDS011;2338;49.602;8.722;2023-03-01T15:06:28;15.43;;;9.97;;
4650;SDS011;2338;49.602;8.722;2023-03-01T15:09:14;15.10;;;11.00;;
4650;SDS011;2338;49.602;8.722;2023-03-01T15:15:21;14.87;;;10.40;;
4650;SDS011;2338;49.602;8.722;2023-03-01T15:18:20;14.27;;;10.00;;
4650;SDS011;2338;49.602;8.722;2023-03-01T15:21:13;16.70;;;11.13;;
4650;SDS011;2338;49.602;8.722;2023-03-01T15:24:02;12.67;;;9.63;;
4650;SDS011;2338;49.602;8.722;2023-03-01T15:26:55;15.13;;;10.10;;
4650;SDS011;2338;49.602;8.722;2023-03-01T15:29:49;14.10;;;9.90;;
4650;SDS011;2338;49.602;8.722;2023-03-01T15:32:37;23.10;;;9.87;;
4650;SDS011;2338;49.602;8.722;2023-03-01T15:35:37;13.23;;;9.70;;
4650;SDS011;2338;49.602;8.722;2023-03-01T15:38:28;14.80;;;10.20;;
4650;SDS011;2338;49.602;8.722;2023-03-01T15:41:22;15.07;;;10.03;;
4650;SDS011;2338;49.602;8.722;2023-03-01T15:44:16;15.67;;;10.73;;
4650;SDS011;2338;49.602;8.722;2023-03-01T15:47:05;14.70;;;10.77;;
4650;SDS011;2338;49.602;8.722;2023-03-01T15:50:14;15.50;;;11.17;;
4650;SDS011;2338;49.602;8.722;2023-03-01T15:53:05;13.90;;;9.00;;
4650;SDS011;2338;49.602;8.722;2023-03-01T15:55:52;15.13;;;10.27;;
4650;SDS011;2338;49.602;8.722;2023-03-01T15:58:38;12.50;;;9.90;;
4650;SDS011;2338;49.602;8.722;2023-03-01T16:01:25;15.23;;;9.33;;
4650;SDS011;2338;49.602;8.722;2023-03-01T16:04:11;15.80;;;10.63;;
4650;SDS011;2338;49.602;8.722;2023-03-01T16:07:04;15.30;;;9.13;;
4650;SDS011;2338;49.602;8.722;2023-03-01T16:09:51;20.80;;;11.50;;
4650;SDS011;2338;49.602;8.722;2023-03-01T16:12:36;14.50;;;10.10;;
4650;SDS011;2338;49.602;8.722;2023-03-01T16:15:23;20.47;;;11.80;;
4650;SDS011;2338;49.602;8.722;2023-03-01T16:18:10;18.27;;;11.30;;
4650;SDS011;2338;49.602;8.722;2023-03-01T16:20:56;17.10;;;10.70;;
4650;SDS011;2338;49.602;8.722;2023-03-01T16:23:43;21.23;;;11.40;;
4650;SDS011;2338;49.602;8.722;2023-03-01T16:26:31;19.33;;;11.63;;
4650;SDS011;2338;49.602;8.722;2023-03-01T16:29:16;14.23;;;10.23;;
4650;SDS011;2338;49.602;8.722;2023-03-01T16:32:02;16.37;;;11.30;;
4650;SDS011;2338;49.602;8.722;2023-03-01T16:34:48;17.30;;;10.47;;
4650;SDS011;2338;49.602;8.722;2023-03-01T16:37:34;17.43;;;11.70;;
4650;SDS011;2338;49.602;8.722;2023-03-01T16:40:21;14.17;;;10.47;;
4650;SDS011;2338;49.602;8.722;2023-03-01T16:43:09;17.37;;;12.67;;
4650;SDS011;2338;49.602;8.722;2023-03-01T16:45:55;17.80;;;12.00;;
4650;SDS011;2338;49.602;8.722;2023-03-01T16:48:40;14.97;;;10.30;;
4650;SDS011;2338;49.602;8.722;2023-03-01T16:51:26;113.33;;;21.87;;
4650;SDS011;2338;49.602;8.722;2023-03-01T16:54:13;39.23;;;11.43;;
4650;SDS011;2338;49.602;8.722;2023-03-01T16:56:59;18.10;;;10.40;;
4650;SDS011;2338;49.602;8.722;2023-03-01T16:59:46;18.97;;;10.87;;
4650;SDS011;2338;49.602;8.722;2023-03-01T17:02:32;15.13;;;10.30;;
4650;SDS011;2338;49.602;8.722;2023-03-01T17:05:18;17.00;;;11.83;;
4650;SDS011;2338;49.602;8.722;2023-03-01T17:08:07;16.30;;;11.30;;
4650;SDS011;2338;49.602;8.722;2023-03-01T17:10:53;23.40;;;14.77;;
4650;SDS011;2338;49.602;8.722;2023-03-01T17:13:39;21.83;;;9.07;;
4650;SDS011;2338;49.602;8.722;2023-03-01T17:16:26;13.40;;;9.80;;
4650;SDS011;2338;49.602;8.722;2023-03-01T17:19:12;14.40;;;9.50;;
4650;SDS011;2338;49.602;8.722;2023-03-01T17:22:01;14.80;;;9.23;;
4650;SDS011;2338;49.602;8.722;2023-03-01T17:24:46;34.10;;;11.37;;